sensor_id;sensor_type;location;lat;lon;timestamp;pressure;altitude;pressure_sealevel;temperature;humidity
65394;BME280;52002;49.760;6.512;2023-06-14T00:00:17;99628.13;;;15.74;52.41
65394;BME280;52002;49.760;6.512;2023-06-14T00:02:43;99630.77;;;15.75;52.50
65394;BME280;52002;49.760;6.512;2023-06-14T00:05:08;99628.88;;;15.71;52.78
65394;BME280;52002;49.760;6.512;2023-06-14T00:07:35;99626.78;;;15.69;52.86
65394;BME280;52002;49.760;6.512;2023-06-14T00:10:02;99629.11;;;15.63;53.07
65394;BME280;52002;49.760;6.512;2023-06-14T00:12:29;99629.39;;;15.58;53.36
65394;BME280;52002;49.760;6.512;2023-06-14T00:14:54;99628.75;;;15.56;53.33
65394;BME280;52002;49.760;6.512;2023-06-14T00:17:20;99629.04;;;15.54;53.43
65394;BME280;52002;49.760;6.512;2023-06-14T00:19:46;99627.44;;;15.48;53.51
65394;BME280;52002;49.760;6.512;2023-06-14T00:22:11;99628.70;;;15.43;53.62
65394;BME280;52002;49.760;6.512;2023-06-14T00:24:37;99629.85;;;15.42;53.79
65394;BME280;52002;49.760;6.512;2023-06-14T00:27:03;99636.02;;;15.40;53.94
65394;BME280;52002;49.760;6.512;2023-06-14T00:29:28;99633.14;;;15.37;54.11
65394;BME280;52002;49.760;6.512;2023-06-14T00:31:54;99634.30;;;15.30;54.29
65394;BME280;52002;49.760;6.512;2023-06-14T00:34:19;99632.09;;;15.26;54.38
65394;BME280;52002;49.760;6.512;2023-06-14T00:36:44;99632.25;;;15.21;54.55
65394;BME280;52002;49.760;6.512;2023-06-14T00:39:10;99635.40;;;15.19;54.65
65394;BME280;52002;49.760;6.512;2023-06-14T00:41:35;99639.46;;;15.17;54.69
65394;BME280;52002;49.760;6.512;2023-06-14T00:44:00;99636.39;;;15.13;54.73
65394;BME280;52002;49.760;6.512;2023-06-14T00:46:26;99636.92;;;15.09;54.88
65394;BME280;52002;49.760;6.512;2023-06-14T00:48:52;99640.08;;;15.08;55.00
65394;BME280;52002;49.760;6.512;2023-06-14T00:51:18;99639.88;;;15.08;55.17
65394;BME280;52002;49.760;6.512;2023-06-14T00:53:44;99639.38;;;15.06;55.29
65394;BME280;52002;49.760;6.512;2023-06-14T00:56:13;99640.42;;;15.01;55.42
65394;BME280;52002;49.760;6.512;2023-06-14T00:58:40;99647.39;;;14.96;55.57
65394;BME280;52002;49.760;6.512;2023-06-14T01:01:05;99654.69;;;14.95;55.92
65394;BME280;52002;49.760;6.512;2023-06-14T01:03:31;99653.38;;;14.93;55.88
65394;BME280;52002;49.760;6.512;2023-06-14T01:06:10;99651.17;;;14.90;56.13
65394;BME280;52002;49.760;6.512;2023-06-14T01:08:51;99648.11;;;14.87;56.11
65394;BME280;52002;49.760;6.512;2023-06-14T01:11:26;99651.71;;;14.87;56.15
65394;BME280;52002;49.760;6.512;2023-06-14T01:13:55;99648.36;;;14.86;56.09
65394;BME280;52002;49.760;6.512;2023-06-14T01:16:22;99653.06;;;14.86;55.95
65394;BME280;52002;49.760;6.512;2023-06-14T01:18:48;99653.73;;;14.77;55.88
65394;BME280;52002;49.760;6.512;2023-06-14T01:21:24;99656.00;;;14.64;56.11
65394;BME280;52002;49.760;6.512;2023-06-14T01:23:51;99652.41;;;14.54;56.31
65394;BME280;52002;49.760;6.512;2023-06-14T01:26:21;99650.05;;;14.50;56.54
65394;BME280;52002;49.760;6.512;2023-06-14T01:28:47;99655.63;;;14.45;56.60
65394;BME280;52002;49.760;6.512;2023-06-14T01:31:19;99655.13;;;14.39;56.67
65394;BME280;52002;49.760;6.512;2023-06-14T01:33:48;99657.36;;;14.30;56.78
65394;BME280;52002;49.760;6.512;2023-06-14T01:36:14;99654.44;;;14.26;57.10
65394;BME280;52002;49.760;6.512;2023-06-14T01:38:41;99655.68;;;14.24;57.11
65394;BME280;52002;49.760;6.512;2023-06-14T01:41:09;99657.59;;;14.20;57.47
65394;BME280;52002;49.760;6.512;2023-06-14T01:43:35;99659.39;;;14.17;57.51
65394;BME280;52002;49.760;6.512;2023-06-14T01:46:02;99663.35;;;14.10;57.69
65394;BME280;52002;49.760;6.512;2023-06-14T01:48:28;99665.39;;;14.03;57.86
65394;BME280;52002;49.760;6.512;2023-06-14T01:50:53;99664.72;;;14.02;58.11
65394;BME280;52002;49.760;6.512;2023-06-14T01:53:19;99668.39;;;14.03;58.20
65394;BME280;52002;49.760;6.512;2023-06-14T01:55:44;99667.77;;;14.01;58.27
65394;BME280;52002;49.760;6.512;2023-06-14T01:58:14;99669.59;;;13.97;58.39
65394;BME280;52002;49.760;6.512;2023-06-14T02:00:41;99673.82;;;13.94;58.54
65394;BME280;52002;49.760;6.512;2023-06-14T02:03:08;99673.61;;;13.93;58.67
65394;BME280;52002;49.760;6.512;2023-06-14T02:05:33;99674.95;;;13.90;58.66
65394;BME280;52002;49.760;6.512;2023-06-14T02:08:00;99677.09;;;13.87;58.63
65394;BME280;52002;49.760;6.512;2023-06-14T02:10:25;99677.59;;;13.88;58.48
65394;BME280;52002;49.760;6.512;2023-06-14T02:12:51;99681.19;;;13.89;58.53
65394;BME280;52002;49.760;6.512;2023-06-14T02:15:16;99682.36;;;13.90;58.27
65394;BME280;52002;49.760;6.512;2023-06-14T02:17:46;99677.19;;;13.88;58.39
65394;BME280;52002;49.760;6.512;2023-06-14T02:20:15;99682.34;;;13.85;58.20
65394;BME280;52002;49.760;6.512;2023-06-14T02:22:41;99681.80;;;13.85;58.41
65394;BME280;52002;49.760;6.512;2023-06-14T02:25:07;99681.00;;;13.86;58.57
65394;BME280;52002;49.760;6.512;2023-06-14T02:27:33;99680.98;;;13.86;58.55
65394;BME280;52002;49.760;6.512;2023-06-14T02:29:59;99681.91;;;13.86;58.71
65394;BME280;52002;49.760;6.512;2023-06-14T02:32:25;99680.77;;;13.85;58.78
65394;BME280;52002;49.760;6.512;2023-06-14T02:34:53;99678.15;;;13.86;58.74
65394;BME280;52002;49.760;6.512;2023-06-14T02:37:19;99676.42;;;13.85;58.74
65394;BME280;52002;49.760;6.512;2023-06-14T02:39:44;99678.84;;;13.81;58.73
65394;BME280;52002;49.760;6.512;2023-06-14T02:42:10;99679.80;;;13.77;58.98
65394;BME280;52002;49.760;6.512;2023-06-14T02:44:36;99676.48;;;13.71;59.15
65394;BME280;52002;49.760;6.512;2023-06-14T02:47:02;99678.85;;;13.66;59.39
65394;BME280;52002;49.760;6.512;2023-06-14T02:49:28;99676.77;;;13.63;59.58
65394;BME280;52002;49.760;6.512;2023-06-14T02:51:53;99678.34;;;13.55;59.85
65394;BME280;52002;49.760;6.512;2023-06-14T02:54:18;99680.91;;;13.46;60.09
65394;BME280;52002;49.760;6.512;2023-06-14T02:56:44;99684.65;;;13.39;60.46
65394;BME280;52002;49.760;6.512;2023-06-14T02:59:09;99684.20;;;13.36;60.62
65394;BME280;52002;49.760;6.512;2023-06-14T03:01:34;99688.21;;;13.34;60.78
65394;BME280;52002;49.760;6.512;2023-06-14T03:04:03;99683.66;;;13.32;60.91
65394;BME280;52002;49.760;6.512;2023-06-14T03:06:30;99684.15;;;13.23;60.96
65394;BME280;52002;49.760;6.512;2023-06-14T03:08:58;99683.25;;;13.18;61.14
65394;BME280;52002;49.760;6.512;2023-06-14T03:11:30;99690.47;;;13.19;61.33
65394;BME280;52002;49.760;6.512;2023-06-14T03:13:55;99688.23;;;13.20;61.38
65394;BME280;52002;49.760;6.512;2023-06-14T03:16:21;99690.55;;;13.25;61.33
65394;BME280;52002;49.760;6.512;2023-06-14T03:18:50;99693.45;;;13.27;61.39
65394;BME280;52002;49.760;6.512;2023-06-14T03:21:16;99698.07;;;13.32;61.26
65394;BME280;52002;49.760;6.512;2023-06-14T03:23:43;99695.71;;;13.34;61.13
65394;BME280;52002;49.760;6.512;2023-06-14T03:26:09;99695.27;;;13.37;61.28
65394;BME280;52002;49.760;6.512;2023-06-14T03:28:39;99694.00;;;13.37;61.00
65394;BME280;52002;49.760;6.512;2023-06-14T03:31:05;99697.35;;;13.32;61.01
65394;BME280;52002;49.760;6.512;2023-06-14T03:33:30;99696.27;;;13.27;61.08
65394;BME280;52002;49.760;6.512;2023-06-14T03:35:56;99697.64;;;13.17;60.95
65394;BME280;52002;49.760;6.512;2023-06-14T03:38:21;99703.21;;;13.15;61.34
65394;BME280;52002;49.760;6.512;2023-06-14T03:40:47;99705.56;;;13.16;61.54
65394;BME280;52002;49.760;6.512;2023-06-14T03:43:12;99705.08;;;13.19;61.53
65394;BME280;52002;49.760;6.512;2023-06-14T03:45:37;99707.38;;;13.22;61.36
65394;BME280;52002;49.760;6.512;2023-06-14T03:48:03;99714.19;;;13.24;61.27
65394;BME280;52002;49.760;6.512;2023-06-14T03:50:31;99706.02;;;13.27;61.30
65394;BME280;52002;49.760;6.512;2023-06-14T03:52:57;99707.71;;;13.24;61.25
65394;BME280;52002;49.760;6.512;2023-06-14T03:55:22;99704.22;;;13.25;61.41
65394;BME280;52002;49.760;6.512;2023-06-14T03:57:51;99705.18;;;13.28;61.50
65394;BME280;52002;49.760;6.512;2023-06-14T04:00:17;99703.86;;;13.33;61.45
65394;BME280;52002;49.760;6.512;2023-06-14T04:02:43;99706.40;;;13.34;61.30
65394;BME280;52002;49.760;6.512;2023-06-14T04:05:11;99705.84;;;13.30;61.29
65394;BME280;52002;49.760;6.512;2023-06-14T04:07:37;99710.82;;;13.28;61.42
65394;BME280;52002;49.760;6.512;2023-06-14T04:10:12;99714.66;;;13.31;61.48
65394;BME280;52002;49.760;6.512;2023-06-14T04:12:38;99717.96;;;13.30;61.33
65394;BME280;52002;49.760;6.512;2023-06-14T04:15:04;99724.61;;;13.26;61.33
65394;BME280;52002;49.760;6.512;2023-06-14T04:17:34;99723.98;;;13.24;61.29
65394;BME280;52002;49.760;6.512;2023-06-14T04:20:00;99720.52;;;13.19;61.48
65394;BME280;52002;49.760;6.512;2023-06-14T04:22:26;99722.46;;;13.19;61.45
65394;BME280;52002;49.760;6.512;2023-06-14T04:24:55;99732.77;;;13.18;61.47
65394;BME280;52002;49.760;6.512;2023-06-14T04:27:26;99734.88;;;13.12;61.32
65394;BME280;52002;49.760;6.512;2023-06-14T04:29:52;99736.52;;;13.11;61.58
65394;BME280;52002;49.760;6.512;2023-06-14T04:32:25;99748.08;;;13.15;61.59
65394;BME280;52002;49.760;6.512;2023-06-14T04:34:53;99748.91;;;13.21;61.71
65394;BME280;52002;49.760;6.512;2023-06-14T04:37:20;99750.14;;;13.23;61.51
65394;BME280;52002;49.760;6.512;2023-06-14T04:39:47;99754.13;;;13.24;61.54
65394;BME280;52002;49.760;6.512;2023-06-14T04:42:12;99750.11;;;13.30;61.57
65394;BME280;52002;49.760;6.512;2023-06-14T04:44:39;99749.95;;;13.33;61.40
65394;BME280;52002;49.760;6.512;2023-06-14T04:47:05;99750.66;;;13.39;61.33
65394;BME280;52002;49.760;6.512;2023-06-14T04:49:32;99753.80;;;13.43;61.17
65394;BME280;52002;49.760;6.512;2023-06-14T04:51:59;99754.46;;;13.51;61.23
65394;BME280;52002;49.760;6.512;2023-06-14T04:54:27;99754.96;;;13.58;60.99
65394;BME280;52002;49.760;6.512;2023-06-14T04:56:53;99758.00;;;13.63;60.80
65394;BME280;52002;49.760;6.512;2023-06-14T04:59:21;99758.27;;;13.67;60.65
65394;BME280;52002;49.760;6.512;2023-06-14T05:01:48;99760.04;;;13.72;60.71
65394;BME280;52002;49.760;6.512;2023-06-14T05:04:17;99762.54;;;13.77;60.52
65394;BME280;52002;49.760;6.512;2023-06-14T05:06:43;99767.48;;;13.81;60.36
65394;BME280;52002;49.760;6.512;2023-06-14T05:09:11;99767.14;;;13.95;60.44
65394;BME280;52002;49.760;6.512;2023-06-14T05:11:37;99765.24;;;14.09;60.21
65394;BME280;52002;49.760;6.512;2023-06-14T05:14:02;99768.80;;;14.25;59.80
65394;BME280;52002;49.760;6.512;2023-06-14T05:16:27;99767.87;;;14.38;59.41
65394;BME280;52002;49.760;6.512;2023-06-14T05:18:54;99770.25;;;14.56;59.03
65394;BME280;52002;49.760;6.512;2023-06-14T05:21:20;99772.43;;;15.32;57.91
65394;BME280;52002;49.760;6.512;2023-06-14T05:23:46;99766.30;;;17.81;54.55
65394;BME280;52002;49.760;6.512;2023-06-14T05:26:11;99767.27;;;20.57;50.37
65394;BME280;52002;49.760;6.512;2023-06-14T05:28:37;99766.39;;;22.71;46.09
65394;BME280;52002;49.760;6.512;2023-06-14T05:31:02;99769.73;;;24.58;42.95
65394;BME280;52002;49.760;6.512;2023-06-14T05:33:28;99775.83;;;26.29;39.80
65394;BME280;52002;49.760;6.512;2023-06-14T05:35:54;99776.52;;;27.61;37.19
65394;BME280;52002;49.760;6.512;2023-06-14T05:38:19;99776.48;;;28.86;35.13
65394;BME280;52002;49.760;6.512;2023-06-14T05:40:44;99780.58;;;30.04;33.02
65394;BME280;52002;49.760;6.512;2023-06-14T05:43:10;99778.68;;;31.12;31.72
65394;BME280;52002;49.760;6.512;2023-06-14T05:45:35;99777.08;;;32.46;30.29
65394;BME280;52002;49.760;6.512;2023-06-14T05:48:01;99782.95;;;33.85;28.48
65394;BME280;52002;49.760;6.512;2023-06-14T05:50:26;99789.23;;;34.89;26.59
65394;BME280;52002;49.760;6.512;2023-06-14T05:52:52;99788.78;;;35.61;25.26
65394;BME280;52002;49.760;6.512;2023-06-14T05:55:18;99793.63;;;36.17;24.00
65394;BME280;52002;49.760;6.512;2023-06-14T05:57:43;99792.80;;;36.55;23.12
65394;BME280;52002;49.760;6.512;2023-06-14T06:00:09;99795.67;;;36.99;22.42
65394;BME280;52002;49.760;6.512;2023-06-14T06:02:40;99795.29;;;37.45;21.71
65394;BME280;52002;49.760;6.512;2023-06-14T06:05:08;99796.61;;;38.04;21.13
65394;BME280;52002;49.760;6.512;2023-06-14T06:07:33;99798.66;;;38.67;20.61
65394;BME280;52002;49.760;6.512;2023-06-14T06:09:59;99797.52;;;39.31;20.11
65394;BME280;52002;49.760;6.512;2023-06-14T06:12:24;99794.97;;;39.91;19.26
65394;BME280;52002;49.760;6.512;2023-06-14T06:14:49;99791.88;;;40.50;18.73
65394;BME280;52002;49.760;6.512;2023-06-14T06:17:15;99794.98;;;40.93;18.13
65394;BME280;52002;49.760;6.512;2023-06-14T06:19:40;99791.96;;;41.31;17.96
65394;BME280;52002;49.760;6.512;2023-06-14T06:22:06;99790.60;;;42.10;17.19
65394;BME280;52002;49.760;6.512;2023-06-14T06:24:32;99790.13;;;42.72;16.89
65394;BME280;52002;49.760;6.512;2023-06-14T06:26:57;99793.67;;;43.37;16.27
65394;BME280;52002;49.760;6.512;2023-06-14T06:29:22;99792.03;;;44.15;15.57
65394;BME280;52002;49.760;6.512;2023-06-14T06:31:48;99788.13;;;44.93;15.35
65394;BME280;52002;49.760;6.512;2023-06-14T06:34:13;99788.10;;;45.98;14.80
65394;BME280;52002;49.760;6.512;2023-06-14T06:36:39;99787.25;;;46.89;13.81
65394;BME280;52002;49.760;6.512;2023-06-14T06:39:04;99789.08;;;47.57;13.31
65394;BME280;52002;49.760;6.512;2023-06-14T06:41:38;99795.02;;;48.18;12.91
65394;BME280;52002;49.760;6.512;2023-06-14T06:44:05;99793.73;;;48.81;12.57
65394;BME280;52002;49.760;6.512;2023-06-14T06:46:32;99793.86;;;49.38;12.24
65394;BME280;52002;49.760;6.512;2023-06-14T06:48:57;99794.16;;;50.05;11.99
65394;BME280;52002;49.760;6.512;2023-06-14T06:51:23;99797.37;;;50.80;11.54
65394;BME280;52002;49.760;6.512;2023-06-14T06:53:52;99795.66;;;51.52;11.03
65394;BME280;52002;49.760;6.512;2023-06-14T06:56:18;99790.70;;;52.13;10.51
65394;BME280;52002;49.760;6.512;2023-06-14T06:58:44;99792.96;;;52.71;10.17
65394;BME280;52002;49.760;6.512;2023-06-14T07:01:09;99794.45;;;53.27;9.94
65394;BME280;52002;49.760;6.512;2023-06-14T07:03:35;99794.54;;;53.78;9.38
65394;BME280;52002;49.760;6.512;2023-06-14T07:06:00;99791.30;;;54.08;9.22
65394;BME280;52002;49.760;6.512;2023-06-14T07:08:26;99791.11;;;54.20;8.64
65394;BME280;52002;49.760;6.512;2023-06-14T07:10:52;99786.53;;;54.32;8.45
65394;BME280;52002;49.760;6.512;2023-06-14T07:13:17;99787.70;;;54.55;8.30
65394;BME280;52002;49.760;6.512;2023-06-14T07:15:43;99792.61;;;54.88;8.29
65394;BME280;52002;49.760;6.512;2023-06-14T07:18:08;99794.36;;;54.80;7.90
65394;BME280;52002;49.760;6.512;2023-06-14T07:20:33;99793.56;;;54.85;7.58
65394;BME280;52002;49.760;6.512;2023-06-14T07:22:59;99792.50;;;55.17;7.67
65394;BME280;52002;49.760;6.512;2023-06-14T07:25:25;99788.45;;;55.55;7.45
65394;BME280;52002;49.760;6.512;2023-06-14T07:27:51;99784.85;;;55.86;7.55
65394;BME280;52002;49.760;6.512;2023-06-14T07:30:16;99786.11;;;56.10;7.22
65394;BME280;52002;49.760;6.512;2023-06-14T07:32:41;99783.25;;;56.17;6.88
65394;BME280;52002;49.760;6.512;2023-06-14T07:35:07;99787.75;;;56.12;6.95
65394;BME280;52002;49.760;6.512;2023-06-14T07:37:33;99790.11;;;56.26;6.69
65394;BME280;52002;49.760;6.512;2023-06-14T07:39:59;99790.59;;;56.13;6.58
65394;BME280;52002;49.760;6.512;2023-06-14T07:42:24;99790.58;;;56.13;6.62
65394;BME280;52002;49.760;6.512;2023-06-14T07:44:50;99786.24;;;56.11;6.48
65394;BME280;52002;49.760;6.512;2023-06-14T07:47:17;99787.69;;;56.06;6.47
65394;BME280;52002;49.760;6.512;2023-06-14T07:49:42;99780.19;;;56.22;6.50
65394;BME280;52002;49.760;6.512;2023-06-14T07:52:08;99780.69;;;56.26;6.39
65394;BME280;52002;49.760;6.512;2023-06-14T07:54:33;99779.91;;;56.20;6.22
65394;BME280;52002;49.760;6.512;2023-06-14T07:56:58;99780.50;;;55.87;6.39
65394;BME280;52002;49.760;6.512;2023-06-14T07:59:26;99775.31;;;55.57;6.61
65394;BME280;52002;49.760;6.512;2023-06-14T08:01:51;99773.74;;;55.37;6.60
65394;BME280;52002;49.760;6.512;2023-06-14T08:04:17;99778.63;;;55.14;6.80
65394;BME280;52002;49.760;6.512;2023-06-14T08:06:42;99775.20;;;55.01;6.79
65394;BME280;52002;49.760;6.512;2023-06-14T08:09:11;99776.91;;;54.58;6.67
65394;BME280;52002;49.760;6.512;2023-06-14T08:11:37;99771.55;;;54.08;6.64
65394;BME280;52002;49.760;6.512;2023-06-14T08:14:03;99768.81;;;53.51;7.11
65394;BME280;52002;49.760;6.512;2023-06-14T08:16:28;99766.15;;;53.34;7.18
65394;BME280;52002;49.760;6.512;2023-06-14T08:18:54;99768.77;;;53.28;7.47
65394;BME280;52002;49.760;6.512;2023-06-14T08:21:20;99765.20;;;52.92;7.32
65394;BME280;52002;49.760;6.512;2023-06-14T08:23:45;99762.13;;;52.75;7.38
65394;BME280;52002;49.760;6.512;2023-06-14T08:26:11;99758.50;;;52.48;7.48
65394;BME280;52002;49.760;6.512;2023-06-14T08:28:36;99759.20;;;52.26;7.64
65394;BME280;52002;49.760;6.512;2023-06-14T08:31:01;99753.98;;;52.06;7.58
65394;BME280;52002;49.760;6.512;2023-06-14T08:33:27;99756.02;;;51.80;7.75
65394;BME280;52002;49.760;6.512;2023-06-14T08:35:52;99749.63;;;51.50;7.98
65394;BME280;52002;49.760;6.512;2023-06-14T08:38:18;99750.14;;;51.25;8.05
65394;BME280;52002;49.760;6.512;2023-06-14T08:40:45;99749.91;;;50.88;8.11
65394;BME280;52002;49.760;6.512;2023-06-14T08:43:13;99748.48;;;50.40;8.43
65394;BME280;52002;49.760;6.512;2023-06-14T08:45:38;99750.69;;;49.93;8.50
65394;BME280;52002;49.760;6.512;2023-06-14T08:48:06;99751.52;;;49.90;8.69
65394;BME280;52002;49.760;6.512;2023-06-14T08:50:32;99746.91;;;49.39;8.71
65394;BME280;52002;49.760;6.512;2023-06-14T08:53:00;99752.27;;;48.69;8.83
65394;BME280;52002;49.760;6.512;2023-06-14T08:55:29;99742.63;;;47.59;9.48
65394;BME280;52002;49.760;6.512;2023-06-14T08:57:56;99738.15;;;46.84;9.91
65394;BME280;52002;49.760;6.512;2023-06-14T09:00:25;99736.56;;;45.53;10.35
65394;BME280;52002;49.760;6.512;2023-06-14T09:02:53;99734.33;;;43.59;11.56
65394;BME280;52002;49.760;6.512;2023-06-14T09:05:27;99732.40;;;41.68;12.65
65394;BME280;52002;49.760;6.512;2023-06-14T09:07:53;99733.95;;;39.95;13.65
65394;BME280;52002;49.760;6.512;2023-06-14T09:10:22;99737.31;;;38.38;14.45
65394;BME280;52002;49.760;6.512;2023-06-14T09:12:48;99732.29;;;37.13;15.40
65394;BME280;52002;49.760;6.512;2023-06-14T09:15:14;99733.77;;;36.08;16.14
65394;BME280;52002;49.760;6.512;2023-06-14T09:17:40;99738.32;;;35.12;17.12
65394;BME280;52002;49.760;6.512;2023-06-14T09:20:07;99740.34;;;34.06;17.82
65394;BME280;52002;49.760;6.512;2023-06-14T09:22:43;99742.64;;;32.93;18.88
65394;BME280;52002;49.760;6.512;2023-06-14T09:25:09;99744.13;;;32.00;19.40
65394;BME280;52002;49.760;6.512;2023-06-14T09:27:34;99746.78;;;30.99;20.07
65394;BME280;52002;49.760;6.512;2023-06-14T09:30:02;99756.54;;;30.02;20.92
65394;BME280;52002;49.760;6.512;2023-06-14T09:32:28;99754.34;;;29.39;21.88
65394;BME280;52002;49.760;6.512;2023-06-14T09:34:54;99758.63;;;28.98;22.81
65394;BME280;52002;49.760;6.512;2023-06-14T09:37:28;99761.87;;;28.69;23.38
65394;BME280;52002;49.760;6.512;2023-06-14T09:39:54;99764.29;;;28.42;24.03
65394;BME280;52002;49.760;6.512;2023-06-14T09:42:20;99771.02;;;28.16;24.65
65394;BME280;52002;49.760;6.512;2023-06-14T09:44:47;99769.95;;;27.94;24.90
65394;BME280;52002;49.760;6.512;2023-06-14T09:47:14;99768.28;;;27.81;25.21
65394;BME280;52002;49.760;6.512;2023-06-14T09:49:40;99767.48;;;27.74;25.36
65394;BME280;52002;49.760;6.512;2023-06-14T09:52:06;99772.65;;;27.66;25.86
65394;BME280;52002;49.760;6.512;2023-06-14T09:54:35;99771.05;;;27.48;25.49
65394;BME280;52002;49.760;6.512;2023-06-14T09:57:05;99767.76;;;27.31;25.85
65394;BME280;52002;49.760;6.512;2023-06-14T09:59:32;99768.11;;;27.21;26.05
65394;BME280;52002;49.760;6.512;2023-06-14T10:01:59;99765.05;;;27.10;26.40
65394;BME280;52002;49.760;6.512;2023-06-14T10:04:31;99765.37;;;26.98;26.47
65394;BME280;52002;49.760;6.512;2023-06-14T10:06:59;99770.23;;;26.92;26.77
65394;BME280;52002;49.760;6.512;2023-06-14T10:09:26;99764.59;;;26.86;26.62
65394;BME280;52002;49.760;6.512;2023-06-14T10:11:52;99775.27;;;26.81;27.04
65394;BME280;52002;49.760;6.512;2023-06-14T10:14:18;99773.59;;;26.83;27.00
65394;BME280;52002;49.760;6.512;2023-06-14T10:19:25;99775.13;;;26.86;26.97
65394;BME280;52002;49.760;6.512;2023-06-14T10:22:08;99776.88;;;26.83;26.91
65394;BME280;52002;49.760;6.512;2023-06-14T10:24:40;99769.17;;;26.75;27.17
65394;BME280;52002;49.760;6.512;2023-06-14T10:27:07;99769.23;;;26.75;27.41
65394;BME280;52002;49.760;6.512;2023-06-14T10:32:25;99769.95;;;26.76;26.58
65394;BME280;52002;49.760;6.512;2023-06-14T10:35:15;99765.21;;;26.79;26.87
65394;BME280;52002;49.760;6.512;2023-06-14T10:37:41;99762.05;;;26.88;27.11
65394;BME280;52002;49.760;6.512;2023-06-14T10:40:07;99757.54;;;26.90;27.21
65394;BME280;52002;49.760;6.512;2023-06-14T10:42:34;99761.47;;;26.89;26.98
65394;BME280;52002;49.760;6.512;2023-06-14T10:45:00;99766.11;;;26.89;26.34
65394;BME280;52002;49.760;6.512;2023-06-14T10:49:55;99765.89;;;26.84;25.85
65394;BME280;52002;49.760;6.512;2023-06-14T10:52:23;99770.33;;;26.80;26.00
65394;BME280;52002;49.760;6.512;2023-06-14T10:55:15;99770.39;;;26.77;25.85
65394;BME280;52002;49.760;6.512;2023-06-14T10:57:53;99766.53;;;26.78;25.89
65394;BME280;52002;49.760;6.512;2023-06-14T11:00:25;99764.23;;;26.84;26.07
65394;BME280;52002;49.760;6.512;2023-06-14T11:05:25;99771.46;;;26.94;25.34
65394;BME280;52002;49.760;6.512;2023-06-14T11:10:42;99768.27;;;26.93;24.13
65394;BME280;52002;49.760;6.512;2023-06-14T11:13:08;99763.48;;;26.88;24.16
65394;BME280;52002;49.760;6.512;2023-06-14T11:15:36;99761.08;;;26.89;24.90
65394;BME280;52002;49.760;6.512;2023-06-14T11:18:04;99765.30;;;26.89;25.43
65394;BME280;52002;49.760;6.512;2023-06-14T11:20:34;99768.81;;;26.80;25.35
65394;BME280;52002;49.760;6.512;2023-06-14T11:23:00;99760.63;;;26.71;25.70
65394;BME280;52002;49.760;6.512;2023-06-14T11:25:26;99760.85;;;26.72;26.06
65394;BME280;52002;49.760;6.512;2023-06-14T11:27:53;99758.00;;;26.75;26.06
65394;BME280;52002;49.760;6.512;2023-06-14T11:30:19;99758.89;;;26.79;25.73
65394;BME280;52002;49.760;6.512;2023-06-14T11:32:53;99756.88;;;26.84;25.36
65394;BME280;52002;49.760;6.512;2023-06-14T11:35:19;99760.14;;;26.78;25.28
65394;BME280;52002;49.760;6.512;2023-06-14T11:37:46;99757.53;;;26.73;25.31
65394;BME280;52002;49.760;6.512;2023-06-14T11:40:14;99760.30;;;26.64;25.57
65394;BME280;52002;49.760;6.512;2023-06-14T11:42:40;99755.86;;;26.63;25.57
65394;BME280;52002;49.760;6.512;2023-06-14T11:45:12;99756.48;;;26.65;25.94
65394;BME280;52002;49.760;6.512;2023-06-14T11:47:39;99753.84;;;26.61;26.27
65394;BME280;52002;49.760;6.512;2023-06-14T11:50:07;99752.33;;;26.62;26.53
65394;BME280;52002;49.760;6.512;2023-06-14T11:52:37;99757.91;;;26.62;26.72
65394;BME280;52002;49.760;6.512;2023-06-14T11:55:03;99757.30;;;26.61;26.77
65394;BME280;52002;49.760;6.512;2023-06-14T11:57:30;99758.59;;;26.57;26.69
65394;BME280;52002;49.760;6.512;2023-06-14T11:59:59;99760.62;;;26.55;26.98
65394;BME280;52002;49.760;6.512;2023-06-14T12:02:24;99765.13;;;26.58;26.54
65394;BME280;52002;49.760;6.512;2023-06-14T12:04:53;99753.28;;;26.57;26.60
65394;BME280;52002;49.760;6.512;2023-06-14T12:07:18;99751.39;;;26.55;26.86
65394;BME280;52002;49.760;6.512;2023-06-14T12:12:23;99755.85;;;26.50;26.52
65394;BME280;52002;49.760;6.512;2023-06-14T12:14:53;99761.86;;;26.42;26.68
65394;BME280;52002;49.760;6.512;2023-06-14T12:17:19;99754.77;;;26.41;26.85
65394;BME280;52002;49.760;6.512;2023-06-14T12:19:49;99750.24;;;26.45;26.69
65394;BME280;52002;49.760;6.512;2023-06-14T12:22:16;99750.02;;;26.48;26.82
65394;BME280;52002;49.760;6.512;2023-06-14T12:24:45;99750.05;;;26.50;26.44
65394;BME280;52002;49.760;6.512;2023-06-14T12:27:12;99749.02;;;26.54;26.46
65394;BME280;52002;49.760;6.512;2023-06-14T12:29:41;99755.50;;;26.56;26.30
65394;BME280;52002;49.760;6.512;2023-06-14T12:32:09;99748.86;;;26.51;26.30
65394;BME280;52002;49.760;6.512;2023-06-14T12:34:34;99745.60;;;26.50;26.23
65394;BME280;52002;49.760;6.512;2023-06-14T12:36:59;99749.25;;;26.47;26.33
65394;BME280;52002;49.760;6.512;2023-06-14T12:39:25;99749.77;;;26.47;26.41
65394;BME280;52002;49.760;6.512;2023-06-14T12:41:51;99745.63;;;26.46;26.10
65394;BME280;52002;49.760;6.512;2023-06-14T12:44:16;99753.02;;;26.47;26.61
65394;BME280;52002;49.760;6.512;2023-06-14T12:46:42;99754.45;;;26.48;26.42
65394;BME280;52002;49.760;6.512;2023-06-14T12:49:09;99753.13;;;26.44;26.40
65394;BME280;52002;49.760;6.512;2023-06-14T12:51:35;99758.02;;;26.42;26.43
65394;BME280;52002;49.760;6.512;2023-06-14T12:54:01;99751.85;;;26.43;26.14
65394;BME280;52002;49.760;6.512;2023-06-14T12:56:26;99745.71;;;26.46;26.07
65394;BME280;52002;49.760;6.512;2023-06-14T12:58:52;99744.09;;;26.47;26.01
65394;BME280;52002;49.760;6.512;2023-06-14T13:01:18;99746.30;;;26.47;26.09
65394;BME280;52002;49.760;6.512;2023-06-14T13:03:43;99745.54;;;26.45;26.13
65394;BME280;52002;49.760;6.512;2023-06-14T13:06:09;99746.12;;;26.43;26.06
65394;BME280;52002;49.760;6.512;2023-06-14T13:08:34;99751.35;;;26.45;26.13
65394;BME280;52002;49.760;6.512;2023-06-14T13:10:59;99748.70;;;26.44;26.42
65394;BME280;52002;49.760;6.512;2023-06-14T13:13:26;99750.86;;;26.42;26.06
65394;BME280;52002;49.760;6.512;2023-06-14T13:15:51;99752.02;;;26.41;25.84